Terminal Aerodrome Forecast
Issued by NWS

Home | Current Version | Previous Version | Text Only | Print | Product List | Glossary On
Versions: 1 2 3 4 5 6 7 8 9 10 11 12 13 14 15 16 17 18 19 20 21 22 23 24 25 26 27 28 29 30 31 32 33 34 35 36 37 38 39 40 41 42
000
FTPA31 PHFO 170529
TAFMDY
TAF
PMDY 170529Z 1706/1806 27011KT P6SM VCSH SCT030 BKN045
     FM171400 VRB06KT P6SM FEW030 SCT045
     FM180000 17015KT P6SM VCSH BKN030 OVC045=

USA.gov is the U.S. government's official web portal to all federal, state and local government web resources and services.